sensor_id;sensor_type;location;lat;lon;timestamp;temperature;humidity
21861;DHT22;11095;48.066;8.540;2023-01-20T00:00:22;-2.60;99.90
21861;DHT22;11095;48.066;8.540;2023-01-20T00:02:48;-2.60;99.90
21861;DHT22;11095;48.066;8.540;2023-01-20T00:05:14;-2.60;99.90
21861;DHT22;11095;48.066;8.540;2023-01-20T00:07:39;-2.50;99.90
21861;DHT22;11095;48.066;8.540;2023-01-20T00:10:08;-2.60;99.90
21861;DHT22;11095;48.066;8.540;2023-01-20T00:12:34;-2.60;99.90
21861;DHT22;11095;48.066;8.540;2023-01-20T00:14:59;-2.60;99.90
21861;DHT22;11095;48.066;8.540;2023-01-20T00:17:26;-2.60;99.90
21861;DHT22;11095;48.066;8.540;2023-01-20T00:19:52;-2.60;99.90
21861;DHT22;11095;48.066;8.540;2023-01-20T00:22:19;-2.60;99.90
21861;DHT22;11095;48.066;8.540;2023-01-20T00:24:44;-2.70;99.90
21861;DHT22;11095;48.066;8.540;2023-01-20T00:27:10;-2.70;99.90
21861;DHT22;11095;48.066;8.540;2023-01-20T00:29:36;-2.70;99.90
21861;DHT22;11095;48.066;8.540;2023-01-20T00:32:01;-2.80;99.90
21861;DHT22;11095;48.066;8.540;2023-01-20T00:34:27;-2.80;99.90
21861;DHT22;11095;48.066;8.540;2023-01-20T00:36:53;-2.80;99.90
21861;DHT22;11095;48.066;8.540;2023-01-20T00:39:18;-2.80;99.90
21861;DHT22;11095;48.066;8.540;2023-01-20T00:41:44;-2.80;99.90
21861;DHT22;11095;48.066;8.540;2023-01-20T00:44:10;-2.80;99.90
21861;DHT22;11095;48.066;8.540;2023-01-20T00:46:35;-2.90;99.90
21861;DHT22;11095;48.066;8.540;2023-01-20T00:49:01;-2.90;99.90
21861;DHT22;11095;48.066;8.540;2023-01-20T00:51:27;-2.80;99.90
21861;DHT22;11095;48.066;8.540;2023-01-20T00:53:52;-2.80;99.90
21861;DHT22;11095;48.066;8.540;2023-01-20T00:56:18;-2.90;99.90
21861;DHT22;11095;48.066;8.540;2023-01-20T00:58:44;-2.90;99.90
21861;DHT22;11095;48.066;8.540;2023-01-20T01:01:10;-2.90;99.90
21861;DHT22;11095;48.066;8.540;2023-01-20T01:03:36;-2.90;99.90
21861;DHT22;11095;48.066;8.540;2023-01-20T01:06:18;-2.90;99.90
21861;DHT22;11095;48.066;8.540;2023-01-20T01:08:48;-2.90;99.90
21861;DHT22;11095;48.066;8.540;2023-01-20T01:14:30;-3.00;99.90
21861;DHT22;11095;48.066;8.540;2023-01-20T01:17:15;-3.00;99.90
21861;DHT22;11095;48.066;8.540;2023-01-20T01:19:52;-2.90;99.90
21861;DHT22;11095;48.066;8.540;2023-01-20T01:22:24;-3.00;99.90
21861;DHT22;11095;48.066;8.540;2023-01-20T01:24:52;-2.90;99.90
21861;DHT22;11095;48.066;8.540;2023-01-20T01:27:23;-2.90;99.90
21861;DHT22;11095;48.066;8.540;2023-01-20T01:29:49;-2.90;99.90
21861;DHT22;11095;48.066;8.540;2023-01-20T01:32:14;-2.90;99.90
21861;DHT22;11095;48.066;8.540;2023-01-20T01:34:45;-2.90;99.90
21861;DHT22;11095;48.066;8.540;2023-01-20T01:37:14;-2.90;99.90
21861;DHT22;11095;48.066;8.540;2023-01-20T01:39:40;-2.90;99.90
21861;DHT22;11095;48.066;8.540;2023-01-20T01:42:10;-2.90;99.90
21861;DHT22;11095;48.066;8.540;2023-01-20T01:44:38;-2.90;99.90
21861;DHT22;11095;48.066;8.540;2023-01-20T01:47:04;-2.80;99.90
21861;DHT22;11095;48.066;8.540;2023-01-20T01:49:31;-2.80;99.90
21861;DHT22;11095;48.066;8.540;2023-01-20T01:52:00;-2.80;99.90
21861;DHT22;11095;48.066;8.540;2023-01-20T01:54:28;-2.80;99.90
21861;DHT22;11095;48.066;8.540;2023-01-20T01:56:56;-2.80;99.90
21861;DHT22;11095;48.066;8.540;2023-01-20T01:59:22;-2.80;99.90
21861;DHT22;11095;48.066;8.540;2023-01-20T02:01:50;-2.80;99.90
21861;DHT22;11095;48.066;8.540;2023-01-20T02:04:18;-2.80;99.90
21861;DHT22;11095;48.066;8.540;2023-01-20T02:07:07;-2.80;99.90
21861;DHT22;11095;48.066;8.540;2023-01-20T02:09:44;-2.80;99.90
21861;DHT22;11095;48.066;8.540;2023-01-20T02:12:22;-2.80;99.90
21861;DHT22;11095;48.066;8.540;2023-01-20T02:15:00;-2.80;99.90
21861;DHT22;11095;48.066;8.540;2023-01-20T02:32:56;-2.80;99.90
21861;DHT22;11095;48.066;8.540;2023-01-20T02:35:42;-2.90;99.90
21861;DHT22;11095;48.066;8.540;2023-01-20T02:43:31;-3.10;99.90
21861;DHT22;11095;48.066;8.540;2023-01-20T02:46:29;-3.20;99.90
21861;DHT22;11095;48.066;8.540;2023-01-20T02:49:19;-3.20;99.90
21861;DHT22;11095;48.066;8.540;2023-01-20T02:51:57;-3.20;99.90
21861;DHT22;11095;48.066;8.540;2023-01-20T02:54:27;-3.20;99.90
21861;DHT22;11095;48.066;8.540;2023-01-20T02:56:53;-3.10;99.90
21861;DHT22;11095;48.066;8.540;2023-01-20T02:59:25;-3.10;99.90
21861;DHT22;11095;48.066;8.540;2023-01-20T03:02:13;-3.10;99.90
21861;DHT22;11095;48.066;8.540;2023-01-20T03:04:46;-3.10;99.90
21861;DHT22;11095;48.066;8.540;2023-01-20T03:07:15;-3.10;99.90
21861;DHT22;11095;48.066;8.540;2023-01-20T03:09:52;-3.10;99.90
21861;DHT22;11095;48.066;8.540;2023-01-20T03:12:45;-3.10;99.90
21861;DHT22;11095;48.066;8.540;2023-01-20T03:15:15;-3.10;99.90
21861;DHT22;11095;48.066;8.540;2023-01-20T03:17:44;-3.10;99.90
21861;DHT22;11095;48.066;8.540;2023-01-20T03:20:10;-3.10;99.90
21861;DHT22;11095;48.066;8.540;2023-01-20T03:22:36;-3.10;99.90
21861;DHT22;11095;48.066;8.540;2023-01-20T03:25:02;-3.10;99.90
21861;DHT22;11095;48.066;8.540;2023-01-20T03:27:28;-3.10;99.90
21861;DHT22;11095;48.066;8.540;2023-01-20T03:29:54;-3.00;99.90
21861;DHT22;11095;48.066;8.540;2023-01-20T03:32:21;-3.10;99.90
21861;DHT22;11095;48.066;8.540;2023-01-20T03:34:53;-3.00;99.90
21861;DHT22;11095;48.066;8.540;2023-01-20T03:37:37;-3.00;99.90
21861;DHT22;11095;48.066;8.540;2023-01-20T03:40:09;-3.00;99.90
21861;DHT22;11095;48.066;8.540;2023-01-20T03:45:45;-2.90;99.90
21861;DHT22;11095;48.066;8.540;2023-01-20T03:51:04;-2.90;99.90
21861;DHT22;11095;48.066;8.540;2023-01-20T03:54:05;-2.90;99.90
21861;DHT22;11095;48.066;8.540;2023-01-20T03:56:54;-3.00;99.90
21861;DHT22;11095;48.066;8.540;2023-01-20T03:59:22;-3.00;99.90
21861;DHT22;11095;48.066;8.540;2023-01-20T04:01:56;-3.10;99.90
21861;DHT22;11095;48.066;8.540;2023-01-20T04:04:47;-3.10;99.90
21861;DHT22;11095;48.066;8.540;2023-01-20T04:07:22;-3.20;99.90
21861;DHT22;11095;48.066;8.540;2023-01-20T04:09:55;-3.30;99.90
21861;DHT22;11095;48.066;8.540;2023-01-20T04:12:25;-3.40;99.90
21861;DHT22;11095;48.066;8.540;2023-01-20T04:14:51;-3.40;99.90
21861;DHT22;11095;48.066;8.540;2023-01-20T04:17:17;-3.30;99.90
21861;DHT22;11095;48.066;8.540;2023-01-20T04:19:42;-3.40;99.90
21861;DHT22;11095;48.066;8.540;2023-01-20T04:22:16;-3.40;99.90
21861;DHT22;11095;48.066;8.540;2023-01-20T04:25:05;-3.40;99.90
21861;DHT22;11095;48.066;8.540;2023-01-20T04:27:36;-3.40;99.90
21861;DHT22;11095;48.066;8.540;2023-01-20T04:30:01;-3.40;99.90
21861;DHT22;11095;48.066;8.540;2023-01-20T04:32:27;-3.50;99.90
21861;DHT22;11095;48.066;8.540;2023-01-20T04:34:52;-3.50;99.90
21861;DHT22;11095;48.066;8.540;2023-01-20T04:37:18;-3.60;99.90
21861;DHT22;11095;48.066;8.540;2023-01-20T04:39:44;-3.60;99.90
21861;DHT22;11095;48.066;8.540;2023-01-20T04:42:11;-3.60;99.90
21861;DHT22;11095;48.066;8.540;2023-01-20T04:44:37;-3.70;99.90
21861;DHT22;11095;48.066;8.540;2023-01-20T04:47:03;-3.80;99.90
21861;DHT22;11095;48.066;8.540;2023-01-20T04:49:28;-3.90;99.90
21861;DHT22;11095;48.066;8.540;2023-01-20T04:51:54;-3.90;99.90
21861;DHT22;11095;48.066;8.540;2023-01-20T04:54:20;-4.00;99.90
21861;DHT22;11095;48.066;8.540;2023-01-20T04:56:48;-4.10;99.90
21861;DHT22;11095;48.066;8.540;2023-01-20T04:59:15;-4.10;99.90
21861;DHT22;11095;48.066;8.540;2023-01-20T05:01:41;-4.20;99.90
21861;DHT22;11095;48.066;8.540;2023-01-20T05:04:06;-4.20;99.90
21861;DHT22;11095;48.066;8.540;2023-01-20T05:06:32;-4.20;99.90
21861;DHT22;11095;48.066;8.540;2023-01-20T05:08:57;-4.30;99.90
21861;DHT22;11095;48.066;8.540;2023-01-20T05:11:23;-4.30;99.90
21861;DHT22;11095;48.066;8.540;2023-01-20T05:13:49;-4.40;99.90
21861;DHT22;11095;48.066;8.540;2023-01-20T05:16:14;-4.40;99.90
21861;DHT22;11095;48.066;8.540;2023-01-20T05:18:46;-4.50;99.90
21861;DHT22;11095;48.066;8.540;2023-01-20T05:21:11;-4.60;99.90
21861;DHT22;11095;48.066;8.540;2023-01-20T05:23:37;-4.60;99.90
21861;DHT22;11095;48.066;8.540;2023-01-20T05:26:02;-4.60;99.90
21861;DHT22;11095;48.066;8.540;2023-01-20T05:28:28;-4.60;99.90
21861;DHT22;11095;48.066;8.540;2023-01-20T05:30:54;-4.70;99.90
21861;DHT22;11095;48.066;8.540;2023-01-20T05:33:19;-4.70;99.90
21861;DHT22;11095;48.066;8.540;2023-01-20T05:35:45;-4.70;99.90
21861;DHT22;11095;48.066;8.540;2023-01-20T05:38:11;-4.70;99.90
21861;DHT22;11095;48.066;8.540;2023-01-20T05:40:36;-4.70;99.90
21861;DHT22;11095;48.066;8.540;2023-01-20T05:43:02;-4.70;99.90
21861;DHT22;11095;48.066;8.540;2023-01-20T05:45:28;-4.80;99.90
21861;DHT22;11095;48.066;8.540;2023-01-20T05:47:55;-4.80;99.90
21861;DHT22;11095;48.066;8.540;2023-01-20T05:50:22;-4.80;99.90
21861;DHT22;11095;48.066;8.540;2023-01-20T05:52:48;-4.80;99.90
21861;DHT22;11095;48.066;8.540;2023-01-20T05:55:14;-4.90;99.90
21861;DHT22;11095;48.066;8.540;2023-01-20T05:57:40;-4.90;99.90
21861;DHT22;11095;48.066;8.540;2023-01-20T06:00:06;-4.80;99.90
21861;DHT22;11095;48.066;8.540;2023-01-20T06:02:32;-4.80;99.90
21861;DHT22;11095;48.066;8.540;2023-01-20T06:04:57;-4.80;99.90
21861;DHT22;11095;48.066;8.540;2023-01-20T06:07:27;-4.80;99.90
21861;DHT22;11095;48.066;8.540;2023-01-20T06:09:53;-4.80;99.90
21861;DHT22;11095;48.066;8.540;2023-01-20T06:12:19;-4.80;99.90
21861;DHT22;11095;48.066;8.540;2023-01-20T06:14:44;-4.80;99.90
21861;DHT22;11095;48.066;8.540;2023-01-20T06:17:10;-4.80;99.90
21861;DHT22;11095;48.066;8.540;2023-01-20T06:19:36;-4.80;99.90
21861;DHT22;11095;48.066;8.540;2023-01-20T06:22:01;-4.80;99.90
21861;DHT22;11095;48.066;8.540;2023-01-20T06:24:27;-4.80;99.90
21861;DHT22;11095;48.066;8.540;2023-01-20T06:26:53;-4.80;99.90
21861;DHT22;11095;48.066;8.540;2023-01-20T06:29:19;-4.70;99.90
21861;DHT22;11095;48.066;8.540;2023-01-20T06:31:46;-4.70;99.90
21861;DHT22;11095;48.066;8.540;2023-01-20T06:34:12;-4.70;99.90
21861;DHT22;11095;48.066;8.540;2023-01-20T06:36:38;-4.60;99.90
21861;DHT22;11095;48.066;8.540;2023-01-20T06:39:03;-4.60;99.90
21861;DHT22;11095;48.066;8.540;2023-01-20T06:41:29;-4.60;99.90
21861;DHT22;11095;48.066;8.540;2023-01-20T06:43:54;-4.50;99.90
21861;DHT22;11095;48.066;8.540;2023-01-20T06:46:20;-4.50;99.90
21861;DHT22;11095;48.066;8.540;2023-01-20T06:48:49;-4.50;99.90
21861;DHT22;11095;48.066;8.540;2023-01-20T06:51:17;-4.40;99.90
21861;DHT22;11095;48.066;8.540;2023-01-20T06:53:43;-4.40;99.90
21861;DHT22;11095;48.066;8.540;2023-01-20T06:56:10;-4.30;99.90
21861;DHT22;11095;48.066;8.540;2023-01-20T06:58:36;-4.20;99.90
21861;DHT22;11095;48.066;8.540;2023-01-20T07:01:07;-4.20;99.90
21861;DHT22;11095;48.066;8.540;2023-01-20T07:03:36;-4.20;99.90
21861;DHT22;11095;48.066;8.540;2023-01-20T07:06:04;-4.10;99.90
21861;DHT22;11095;48.066;8.540;2023-01-20T07:08:31;-4.10;99.90
21861;DHT22;11095;48.066;8.540;2023-01-20T07:10:57;-4.00;99.90
21861;DHT22;11095;48.066;8.540;2023-01-20T07:13:23;-3.90;99.90
21861;DHT22;11095;48.066;8.540;2023-01-20T07:15:48;-3.80;99.90
21861;DHT22;11095;48.066;8.540;2023-01-20T07:18:14;-3.80;99.90
21861;DHT22;11095;48.066;8.540;2023-01-20T07:20:40;-3.70;99.90
21861;DHT22;11095;48.066;8.540;2023-01-20T07:23:07;-3.70;99.90
21861;DHT22;11095;48.066;8.540;2023-01-20T07:25:33;-3.70;99.90
21861;DHT22;11095;48.066;8.540;2023-01-20T07:27:58;-3.70;99.90
21861;DHT22;11095;48.066;8.540;2023-01-20T07:30:25;-3.60;99.90
21861;DHT22;11095;48.066;8.540;2023-01-20T07:32:50;-3.60;99.90
21861;DHT22;11095;48.066;8.540;2023-01-20T07:35:16;-3.60;99.90
21861;DHT22;11095;48.066;8.540;2023-01-20T07:37:42;-3.50;99.90
21861;DHT22;11095;48.066;8.540;2023-01-20T07:40:08;-3.50;99.90
21861;DHT22;11095;48.066;8.540;2023-01-20T07:42:37;-3.40;99.90
21861;DHT22;11095;48.066;8.540;2023-01-20T07:45:03;-3.40;99.90
21861;DHT22;11095;48.066;8.540;2023-01-20T07:47:30;-3.30;99.90
21861;DHT22;11095;48.066;8.540;2023-01-20T07:49:55;-3.30;99.90
21861;DHT22;11095;48.066;8.540;2023-01-20T07:52:21;-3.30;99.90
21861;DHT22;11095;48.066;8.540;2023-01-20T07:54:47;-3.30;99.90
21861;DHT22;11095;48.066;8.540;2023-01-20T07:57:12;-3.30;99.90
21861;DHT22;11095;48.066;8.540;2023-01-20T07:59:38;-3.20;99.90
21861;DHT22;11095;48.066;8.540;2023-01-20T08:02:03;-3.20;99.90
21861;DHT22;11095;48.066;8.540;2023-01-20T08:04:29;-3.10;99.90
21861;DHT22;11095;48.066;8.540;2023-01-20T08:06:55;-3.00;99.90
21861;DHT22;11095;48.066;8.540;2023-01-20T08:09:20;-3.00;99.90
21861;DHT22;11095;48.066;8.540;2023-01-20T08:11:46;-2.90;99.90
21861;DHT22;11095;48.066;8.540;2023-01-20T08:14:12;-2.90;99.90
21861;DHT22;11095;48.066;8.540;2023-01-20T08:16:37;-2.80;99.90
21861;DHT22;11095;48.066;8.540;2023-01-20T08:19:03;-2.80;99.90
21861;DHT22;11095;48.066;8.540;2023-01-20T08:21:30;-2.70;99.90
21861;DHT22;11095;48.066;8.540;2023-01-20T08:23:59;-2.70;99.90
21861;DHT22;11095;48.066;8.540;2023-01-20T08:26:25;-2.70;99.90
21861;DHT22;11095;48.066;8.540;2023-01-20T08:28:53;-2.60;99.90
21861;DHT22;11095;48.066;8.540;2023-01-20T08:31:23;-2.60;99.90
21861;DHT22;11095;48.066;8.540;2023-01-20T08:33:53;-2.60;99.90
21861;DHT22;11095;48.066;8.540;2023-01-20T08:36:25;-2.60;99.90
21861;DHT22;11095;48.066;8.540;2023-01-20T08:38:52;-2.50;99.90
21861;DHT22;11095;48.066;8.540;2023-01-20T08:41:22;-2.30;99.90
21861;DHT22;11095;48.066;8.540;2023-01-20T08:43:48;-2.20;99.90
21861;DHT22;11095;48.066;8.540;2023-01-20T08:46:15;-1.90;99.90
21861;DHT22;11095;48.066;8.540;2023-01-20T08:48:42;-1.60;99.90
21861;DHT22;11095;48.066;8.540;2023-01-20T08:51:11;-1.30;99.90
21861;DHT22;11095;48.066;8.540;2023-01-20T08:53:38;-1.00;99.90
21861;DHT22;11095;48.066;8.540;2023-01-20T08:56:05;-0.80;99.90
21861;DHT22;11095;48.066;8.540;2023-01-20T08:58:32;-0.60;99.90
21861;DHT22;11095;48.066;8.540;2023-01-20T09:00:58;-0.50;99.90
21861;DHT22;11095;48.066;8.540;2023-01-20T09:03:24;-0.40;99.90
21861;DHT22;11095;48.066;8.540;2023-01-20T09:05:50;-0.40;99.90
21861;DHT22;11095;48.066;8.540;2023-01-20T09:08:18;-0.30;99.90
21861;DHT22;11095;48.066;8.540;2023-01-20T09:10:45;-0.30;99.90
21861;DHT22;11095;48.066;8.540;2023-01-20T09:13:11;-0.30;99.90
21861;DHT22;11095;48.066;8.540;2023-01-20T09:15:36;-0.20;99.90
21861;DHT22;11095;48.066;8.540;2023-01-20T09:18:03;-0.10;99.90
21861;DHT22;11095;48.066;8.540;2023-01-20T09:20:28;0.00;99.90
21861;DHT22;11095;48.066;8.540;2023-01-20T09:22:55;0.10;99.90
21861;DHT22;11095;48.066;8.540;2023-01-20T09:25:20;0.20;99.90
21861;DHT22;11095;48.066;8.540;2023-01-20T09:27:46;0.30;99.90
21861;DHT22;11095;48.066;8.540;2023-01-20T09:30:12;0.40;99.90
21861;DHT22;11095;48.066;8.540;2023-01-20T09:32:38;0.60;99.90
21861;DHT22;11095;48.066;8.540;2023-01-20T09:35:04;0.70;99.90
21861;DHT22;11095;48.066;8.540;2023-01-20T09:37:30;0.80;99.90
21861;DHT22;11095;48.066;8.540;2023-01-20T09:40:18;0.90;99.90
21861;DHT22;11095;48.066;8.540;2023-01-20T09:54:58;2.20;99.90
21861;DHT22;11095;48.066;8.540;2023-01-20T09:57:32;2.60;99.90
21861;DHT22;11095;48.066;8.540;2023-01-20T10:00:06;2.80;99.90
21861;DHT22;11095;48.066;8.540;2023-01-20T10:02:35;3.10;99.90
21861;DHT22;11095;48.066;8.540;2023-01-20T10:05:11;3.30;99.90
21861;DHT22;11095;48.066;8.540;2023-01-20T10:07:49;3.50;99.90
21861;DHT22;11095;48.066;8.540;2023-01-20T10:10:31;3.90;99.90
21861;DHT22;11095;48.066;8.540;2023-01-20T10:13:07;4.90;99.90
21861;DHT22;11095;48.066;8.540;2023-01-20T10:15:41;6.20;99.90
21861;DHT22;11095;48.066;8.540;2023-01-20T10:18:13;7.20;99.90
21861;DHT22;11095;48.066;8.540;2023-01-20T10:23:38;8.40;99.90
21861;DHT22;11095;48.066;8.540;2023-01-20T10:26:09;9.00;99.90
21861;DHT22;11095;48.066;8.540;2023-01-20T10:28:42;9.60;99.90
21861;DHT22;11095;48.066;8.540;2023-01-20T10:31:12;9.40;99.90
21861;DHT22;11095;48.066;8.540;2023-01-20T10:33:43;9.30;99.90
21861;DHT22;11095;48.066;8.540;2023-01-20T10:36:18;8.40;99.90
21861;DHT22;11095;48.066;8.540;2023-01-20T10:41:40;7.90;99.90
21861;DHT22;11095;48.066;8.540;2023-01-20T10:56:48;7.40;99.90
21861;DHT22;11095;48.066;8.540;2023-01-20T10:59:32;6.70;99.90
21861;DHT22;11095;48.066;8.540;2023-01-20T11:02:24;6.10;99.90
21861;DHT22;11095;48.066;8.540;2023-01-20T11:04:57;5.30;99.90
21861;DHT22;11095;48.066;8.540;2023-01-20T11:07:23;4.80;99.90
21861;DHT22;11095;48.066;8.540;2023-01-20T11:09:50;4.50;99.90
21861;DHT22;11095;48.066;8.540;2023-01-20T11:12:19;4.30;99.90
21861;DHT22;11095;48.066;8.540;2023-01-20T11:14:46;4.20;99.90
21861;DHT22;11095;48.066;8.540;2023-01-20T11:17:15;3.80;99.90
21861;DHT22;11095;48.066;8.540;2023-01-20T11:19:52;3.60;99.90
21861;DHT22;11095;48.066;8.540;2023-01-20T11:22:37;3.00;99.90
21861;DHT22;11095;48.066;8.540;2023-01-20T11:25:03;2.90;99.90
21861;DHT22;11095;48.066;8.540;2023-01-20T11:27:40;2.90;99.90
21861;DHT22;11095;48.066;8.540;2023-01-20T11:32:45;1.90;99.90
21861;DHT22;11095;48.066;8.540;2023-01-20T11:37:44;1.40;99.90
21861;DHT22;11095;48.066;8.540;2023-01-20T11:40:21;1.00;99.90
21861;DHT22;11095;48.066;8.540;2023-01-20T11:42:48;0.80;99.90
21861;DHT22;11095;48.066;8.540;2023-01-20T11:45:28;1.00;99.90
21861;DHT22;11095;48.066;8.540;2023-01-20T11:53:25;1.90;99.90
21861;DHT22;11095;48.066;8.540;2023-01-20T11:58:30;1.60;99.90
21861;DHT22;11095;48.066;8.540;2023-01-20T12:01:18;1.50;99.90
21861;DHT22;11095;48.066;8.540;2023-01-20T12:06:26;0.90;99.90
21861;DHT22;11095;48.066;8.540;2023-01-20T12:09:11;1.00;99.90
21861;DHT22;11095;48.066;8.540;2023-01-20T12:11:49;1.00;99.90
21861;DHT22;11095;48.066;8.540;2023-01-20T12:14:50;1.10;99.90
21861;DHT22;11095;48.066;8.540;2023-01-20T12:17:37;1.30;99.90
21861;DHT22;11095;48.066;8.540;2023-01-20T12:20:25;1.20;99.90
21861;DHT22;11095;48.066;8.540;2023-01-20T12:25:59;1.10;99.90
21861;DHT22;11095;48.066;8.540;2023-01-20T12:31:30;1.00;99.90
21861;DHT22;11095;48.066;8.540;2023-01-20T12:34:03;1.10;99.90
21861;DHT22;11095;48.066;8.540;2023-01-20T12:40:04;1.20;99.90
21861;DHT22;11095;48.066;8.540;2023-01-20T12:45:28;0.80;99.90
21861;DHT22;11095;48.066;8.540;2023-01-20T13:15:44;0.40;99.90
21861;DHT22;11095;48.066;8.540;2023-01-20T13:20:57;0.40;99.90
21861;DHT22;11095;48.066;8.540;2023-01-20T13:23:33;0.20;99.90
21861;DHT22;11095;48.066;8.540;2023-01-20T13:26:01;0.30;99.90
21861;DHT22;11095;48.066;8.540;2023-01-20T13:28:29;0.40;99.90
21861;DHT22;11095;48.066;8.540;2023-01-20T13:30:57;0.50;99.90
21861;DHT22;11095;48.066;8.540;2023-01-20T13:33:40;0.60;99.90
21861;DHT22;11095;48.066;8.540;2023-01-20T13:38:38;0.70;99.90
21861;DHT22;11095;48.066;8.540;2023-01-20T13:41:04;0.60;99.90
21861;DHT22;11095;48.066;8.540;2023-01-20T13:43:31;0.50;99.90
21861;DHT22;11095;48.066;8.540;2023-01-20T13:48:31;0.80;99.90
21861;DHT22;11095;48.066;8.540;2023-01-20T13:53:46;1.00;99.90
21861;DHT22;11095;48.066;8.540;2023-01-20T13:56:28;1.10;99.90
21861;DHT22;11095;48.066;8.540;2023-01-20T13:58:55;1.20;99.90
21861;DHT22;11095;48.066;8.540;2023-01-20T14:01:24;1.20;99.90
21861;DHT22;11095;48.066;8.540;2023-01-20T14:04:13;1.00;99.90
21861;DHT22;11095;48.066;8.540;2023-01-20T14:06:50;0.80;99.90
21861;DHT22;11095;48.066;8.540;2023-01-20T14:09:24;0.60;99.90
21861;DHT22;11095;48.066;8.540;2023-01-20T14:11:55;0.60;99.90
21861;DHT22;11095;48.066;8.540;2023-01-20T14:14:23;0.60;99.90
21861;DHT22;11095;48.066;8.540;2023-01-20T14:16:49;0.70;99.90
21861;DHT22;11095;48.066;8.540;2023-01-20T14:19:29;0.80;99.90
21861;DHT22;11095;48.066;8.540;2023-01-20T14:22:01;0.90;99.90
21861;DHT22;11095;48.066;8.540;2023-01-20T14:29:42;0.90;99.90
21861;DHT22;11095;48.066;8.540;2023-01-20T14:32:22;1.00;99.90
21861;DHT22;11095;48.066;8.540;2023-01-20T14:34:50;1.00;99.90
21861;DHT22;11095;48.066;8.540;2023-01-20T14:37:27;1.00;99.90
21861;DHT22;11095;48.066;8.540;2023-01-20T14:39:56;1.00;99.90
21861;DHT22;11095;48.066;8.540;2023-01-20T14:42:24;1.00;99.90
21861;DHT22;11095;48.066;8.540;2023-01-20T14:44:52;1.00;99.90
21861;DHT22;11095;48.066;8.540;2023-01-20T14:47:19;1.00;99.90
21861;DHT22;11095;48.066;8.540;2023-01-20T14:49:47;1.00;99.90
21861;DHT22;11095;48.066;8.540;2023-01-20T14:52:18;0.90;99.90
21861;DHT22;11095;48.066;8.540;2023-01-20T14:54:46;0.90;99.90
21861;DHT22;11095;48.066;8.540;2023-01-20T14:59:43;0.80;99.90
21861;DHT22;11095;48.066;8.540;2023-01-20T15:02:24;0.80;99.90
21861;DHT22;11095;48.066;8.540;2023-01-20T15:04:51;0.70;99.90
21861;DHT22;11095;48.066;8.540;2023-01-20T15:07:19;0.70;99.90
21861;DHT22;11095;48.066;8.540;2023-01-20T15:10:04;0.60;99.90
21861;DHT22;11095;48.066;8.540;2023-01-20T15:17:31;0.50;99.90
21861;DHT22;11095;48.066;8.540;2023-01-20T15:19:57;0.40;99.90
21861;DHT22;11095;48.066;8.540;2023-01-20T15:22:25;0.40;99.90
21861;DHT22;11095;48.066;8.540;2023-01-20T15:24:51;0.40;99.90
21861;DHT22;11095;48.066;8.540;2023-01-20T15:27:27;0.30;99.90
21861;DHT22;11095;48.066;8.540;2023-01-20T15:30:12;0.30;99.90
21861;DHT22;11095;48.066;8.540;2023-01-20T15:32:38;0.10;99.90
21861;DHT22;11095;48.066;8.540;2023-01-20T15:35:04;0.00;99.90
21861;DHT22;11095;48.066;8.540;2023-01-20T15:37:30;-0.10;99.90
21861;DHT22;11095;48.066;8.540;2023-01-20T15:39:55;-0.20;99.90
21861;DHT22;11095;48.066;8.540;2023-01-20T15:42:23;-0.30;99.90
21861;DHT22;11095;48.066;8.540;2023-01-20T15:44:49;-0.40;99.90
21861;DHT22;11095;48.066;8.540;2023-01-20T15:47:27;-0.50;99.90
21861;DHT22;11095;48.066;8.540;2023-01-20T15:49:58;-0.70;99.90
21861;DHT22;11095;48.066;8.540;2023-01-20T15:52:23;-0.80;99.90
21861;DHT22;11095;48.066;8.540;2023-01-20T15:54:49;-0.90;99.90
21861;DHT22;11095;48.066;8.540;2023-01-20T15:57:16;-1.00;99.90
21861;DHT22;11095;48.066;8.540;2023-01-20T15:59:42;-1.10;99.90
21861;DHT22;11095;48.066;8.540;2023-01-20T16:02:16;-1.20;99.90
21861;DHT22;11095;48.066;8.540;2023-01-20T16:04:42;-1.30;99.90
21861;DHT22;11095;48.066;8.540;2023-01-20T16:07:12;-1.40;99.90
21861;DHT22;11095;48.066;8.540;2023-01-20T16:09:38;-1.50;99.90
21861;DHT22;11095;48.066;8.540;2023-01-20T16:12:04;-1.60;99.90
21861;DHT22;11095;48.066;8.540;2023-01-20T16:14:29;-1.70;99.90
21861;DHT22;11095;48.066;8.540;2023-01-20T16:16:55;-1.80;99.90
21861;DHT22;11095;48.066;8.540;2023-01-20T16:19:21;-2.00;99.90
21861;DHT22;11095;48.066;8.540;2023-01-20T16:21:46;-2.00;99.90
21861;DHT22;11095;48.066;8.540;2023-01-20T16:24:12;-2.10;99.90
21861;DHT22;11095;48.066;8.540;2023-01-20T16:26:38;-2.20;99.90
21861;DHT22;11095;48.066;8.540;2023-01-20T16:29:03;-2.30;99.90
21861;DHT22;11095;48.066;8.540;2023-01-20T16:31:29;-2.40;99.90
21861;DHT22;11095;48.066;8.540;2023-01-20T16:33:55;-2.40;99.90
21861;DHT22;11095;48.066;8.540;2023-01-20T16:36:22;-2.50;99.90
21861;DHT22;11095;48.066;8.540;2023-01-20T16:38:49;-2.60;99.90
21861;DHT22;11095;48.066;8.540;2023-01-20T16:41:23;-2.70;99.90
21861;DHT22;11095;48.066;8.540;2023-01-20T16:43:50;-2.80;99.90
21861;DHT22;11095;48.066;8.540;2023-01-20T16:46:21;-2.80;99.90
21861;DHT22;11095;48.066;8.540;2023-01-20T16:48:47;-2.90;99.90
21861;DHT22;11095;48.066;8.540;2023-01-20T16:51:15;-2.90;99.90
21861;DHT22;11095;48.066;8.540;2023-01-20T16:53:41;-2.90;99.90
21861;DHT22;11095;48.066;8.540;2023-01-20T16:56:15;-3.00;99.90
21861;DHT22;11095;48.066;8.540;2023-01-20T16:58:42;-3.00;99.90
21861;DHT22;11095;48.066;8.540;2023-01-20T17:01:08;-3.10;99.90
21861;DHT22;11095;48.066;8.540;2023-01-20T17:03:40;-3.10;99.90
21861;DHT22;11095;48.066;8.540;2023-01-20T17:06:11;-3.10;99.90
21861;DHT22;11095;48.066;8.540;2023-01-20T17:08:37;-3.10;99.90
21861;DHT22;11095;48.066;8.540;2023-01-20T17:11:03;-3.20;99.90
21861;DHT22;11095;48.066;8.540;2023-01-20T17:13:28;-3.20;99.90
21861;DHT22;11095;48.066;8.540;2023-01-20T17:15:54;-3.20;99.90
21861;DHT22;11095;48.066;8.540;2023-01-20T17:18:20;-3.30;99.90
21861;DHT22;11095;48.066;8.540;2023-01-20T17:20:45;-3.30;99.90
21861;DHT22;11095;48.066;8.540;2023-01-20T17:23:11;-3.40;99.90
21861;DHT22;11095;48.066;8.540;2023-01-20T17:25:36;-3.40;99.90
21861;DHT22;11095;48.066;8.540;2023-01-20T17:28:02;-3.50;99.90
21861;DHT22;11095;48.066;8.540;2023-01-20T17:30:28;-3.60;99.90
21861;DHT22;11095;48.066;8.540;2023-01-20T17:32:53;-3.60;99.90
21861;DHT22;11095;48.066;8.540;2023-01-20T17:35:19;-3.70;99.90
21861;DHT22;11095;48.066;8.540;2023-01-20T17:37:44;-3.70;99.90
21861;DHT22;11095;48.066;8.540;2023-01-20T17:40:11;-3.80;99.90
21861;DHT22;11095;48.066;8.540;2023-01-20T17:42:37;-3.80;99.90
21861;DHT22;11095;48.066;8.540;2023-01-20T17:45:03;-3.80;99.90
21861;DHT22;11095;48.066;8.540;2023-01-20T17:47:29;-3.90;99.90
21861;DHT22;11095;48.066;8.540;2023-01-20T17:49:54;-3.90;99.90
21861;DHT22;11095;48.066;8.540;2023-01-20T17:52:20;-4.00;99.90
21861;DHT22;11095;48.066;8.540;2023-01-20T17:54:48;-4.10;99.90
21861;DHT22;11095;48.066;8.540;2023-01-20T17:57:13;-4.10;99.90
21861;DHT22;11095;48.066;8.540;2023-01-20T17:59:39;-4.10;99.90
21861;DHT22;11095;48.066;8.540;2023-01-20T18:02:05;-4.20;99.90
21861;DHT22;11095;48.066;8.540;2023-01-20T18:04:31;-4.30;99.90
21861;DHT22;11095;48.066;8.540;2023-01-20T18:06:56;-4.30;99.90